Time;durP1;ratioP1;P1;durP2;ratioP2;P2;SDS_P1;SDS_P2;PMS_P1;PMS_P2;Temp;Humidity;BMP_temperature;BMP_pressure;BME280_temperature;BME280_humidity;BME280_pressure;Samples;Min_cycle;Max_cycle;Signal;HPM_P1;HPM_P2
2021/12/19 00:02:29;;;;;;;2.80;2.70;;;4.30;99.90;;;;;;5047842;28;20195;-64
2021/12/19 00:10:22;;;;;;;3.00;2.90;;;4.40;99.90;;;;;;5043558;28;20203;-66
2021/12/19 00:12:50;;;;;;;2.67;2.57;;;4.40;99.90;;;;;;5044478;28;20292;-66
2021/12/19 00:15:17;;;;;;;2.90;2.80;;;4.40;99.90;;;;;;5051632;28;20222;-66
2021/12/19 00:17:44;;;;;;;3.10;2.90;;;4.40;99.90;;;;;;5056507;28;20290;-67
2021/12/19 00:20:13;;;;;;;3.00;2.80;;;4.50;99.90;;;;;;5046100;28;20205;-66
2021/12/19 00:22:40;;;;;;;3.00;2.80;;;4.40;99.90;;;;;;5045116;28;20287;-65
2021/12/19 00:25:07;;;;;;;3.07;2.97;;;4.50;99.90;;;;;;5050449;28;20287;-66
2021/12/19 00:27:34;;;;;;;3.47;3.27;;;4.50;99.90;;;;;;5059757;28;20208;-65
2021/12/19 00:30:02;;;;;;;3.20;3.07;;;4.40;99.90;;;;;;5042604;28;20226;-66
2021/12/19 00:32:29;;;;;;;2.87;2.77;;;4.40;99.90;;;;;;5047232;28;20620;-66
2021/12/19 00:34:55;;;;;;;3.53;3.33;;;4.40;99.90;;;;;;5045153;28;20231;-65
2021/12/19 00:37:24;;;;;;;3.33;3.13;;;4.40;99.90;;;;;;5046276;28;20216;-66
2021/12/19 00:39:51;;;;;;;3.07;2.97;;;4.40;99.90;;;;;;5047774;28;20200;-67
2021/12/19 00:42:27;;;;;;;3.10;3.00;;;4.30;99.90;;;;;;5043990;28;20197;-67
2021/12/19 00:44:54;;;;;;;2.87;2.73;;;4.40;99.90;;;;;;5049629;28;20259;-66
2021/12/19 00:47:21;;;;;;;3.33;3.13;;;4.40;99.90;;;;;;5048150;28;20211;-65
2021/12/19 00:49:48;;;;;;;3.30;3.10;;;4.40;99.90;;;;;;5051221;28;20250;-66
2021/12/19 00:52:15;;;;;;;2.97;2.87;;;4.40;99.90;;;;;;5047929;28;20287;-65
2021/12/19 00:54:44;;;;;;;3.27;3.07;;;4.50;99.90;;;;;;5050114;28;20267;-67
2021/12/19 00:57:10;;;;;;;2.63;2.53;;;4.40;99.90;;;;;;5046296;28;20856;-65
2021/12/19 00:59:37;;;;;;;3.33;3.13;;;4.50;99.90;;;;;;5049629;28;20210;-66
2021/12/19 01:02:05;;;;;;;3.30;3.10;;;4.40;99.90;;;;;;5051480;28;20287;-66
2021/12/19 01:04:32;;;;;;;3.80;3.60;;;4.40;99.90;;;;;;5052975;28;20787;-65
2021/12/19 01:07:01;;;;;;;3.30;3.10;;;4.40;99.90;;;;;;5054551;28;20661;-67
2021/12/19 01:09:28;;;;;;;3.50;3.30;;;4.40;99.90;;;;;;5054111;28;21026;-64
2021/12/19 01:11:56;;;;;;;3.17;3.07;;;4.40;99.90;;;;;;5050263;28;20201;-66
2021/12/19 01:14:23;;;;;;;3.37;3.17;;;4.20;99.90;;;;;;5044065;28;20608;-64
2021/12/19 01:16:50;;;;;;;3.00;2.80;;;4.20;99.90;;;;;;5053760;28;20816;-65
2021/12/19 01:19:18;;;;;;;3.33;3.13;;;4.20;99.90;;;;;;5050753;28;20556;-66
2021/12/19 01:21:45;;;;;;;3.20;3.00;;;4.20;99.90;;;;;;5048340;28;20204;-65
2021/12/19 01:24:15;;;;;;;2.90;2.80;;;4.20;99.90;;;;;;5056787;28;20318;-65
2021/12/19 01:26:43;;;;;;;2.70;2.60;;;4.20;99.90;;;;;;5063930;28;20221;-66
2021/12/19 01:29:12;;;;;;;2.77;2.67;;;4.20;99.90;;;;;;5054307;28;20199;-64
2021/12/19 01:31:39;;;;;;;2.80;2.70;;;4.10;99.90;;;;;;5053019;28;20291;-66
2021/12/19 01:34:06;;;;;;;2.97;2.83;;;4.10;99.90;;;;;;5060414;28;20232;-65
2021/12/19 01:36:32;;;;;;;2.60;2.50;;;4.10;99.90;;;;;;5061641;28;20259;-67
2021/12/19 01:38:59;;;;;;;3.17;3.07;;;4.10;99.90;;;;;;5046699;28;20200;-66
2021/12/19 01:41:26;;;;;;;2.97;2.87;;;4.10;99.90;;;;;;5053553;28;20204;-65
2021/12/19 01:43:54;;;;;;;2.50;2.40;;;4.10;99.90;;;;;;5050662;28;20282;-65
2021/12/19 01:46:22;;;;;;;2.80;2.70;;;4.00;99.90;;;;;;5047048;28;20306;-64
2021/12/19 01:48:49;;;;;;;2.50;2.40;;;4.00;99.90;;;;;;5044686;28;20232;-66
2021/12/19 01:51:16;;;;;;;2.80;2.70;;;4.00;99.90;;;;;;5061713;28;20242;-65
2021/12/19 01:53:43;;;;;;;2.80;2.70;;;4.10;99.90;;;;;;5058641;28;20213;-65
2021/12/19 01:56:10;;;;;;;2.93;2.83;;;4.00;99.90;;;;;;5060122;28;20239;-67
2021/12/19 01:58:38;;;;;;;2.70;2.60;;;4.00;99.90;;;;;;5061081;28;20269;-66
2021/12/19 02:01:05;;;;;;;2.67;2.57;;;4.00;99.90;;;;;;5058851;28;20211;-66
2021/12/19 02:03:35;;;;;;;2.60;2.50;;;4.00;99.90;;;;;;5052539;28;20295;-65
2021/12/19 02:06:02;;;;;;;2.40;2.30;;;3.90;99.90;;;;;;5041954;28;20255;-69
2021/12/19 02:08:29;;;;;;;2.20;2.10;;;3.90;99.90;;;;;;5051811;28;20634;-64
2021/12/19 02:10:56;;;;;;;2.40;2.30;;;3.80;99.90;;;;;;5054682;28;20213;-65
2021/12/19 02:13:23;;;;;;;2.40;2.30;;;3.80;99.90;;;;;;5048261;28;20292;-66
2021/12/19 02:15:51;;;;;;;2.50;2.40;;;3.80;99.90;;;;;;5057693;28;20722;-65
2021/12/19 02:18:21;;;;;;;3.20;3.00;;;3.70;99.90;;;;;;5068444;28;20207;-68
2021/12/19 02:20:52;;;;;;;2.87;2.77;;;3.60;99.90;;;;;;5071063;28;20280;-66
2021/12/19 02:23:20;;;;;;;2.87;2.77;;;3.60;99.90;;;;;;5052003;28;20291;-66
2021/12/19 02:25:47;;;;;;;3.00;2.90;;;3.50;99.90;;;;;;5055871;28;20220;-66
2021/12/19 02:28:14;;;;;;;3.23;3.03;;;3.50;99.90;;;;;;5054050;28;20200;-64
2021/12/19 02:30:41;;;;;;;3.30;3.10;;;3.40;99.90;;;;;;5052804;28;20717;-65
2021/12/19 02:33:12;;;;;;;2.93;2.73;;;3.50;99.90;;;;;;5050330;28;20235;-64
2021/12/19 02:35:40;;;;;;;3.43;3.23;;;3.50;99.90;;;;;;5066453;22;20399;-62
2021/12/19 02:49:28;;;;;;;2.60;2.50;;;3.50;99.90;;;;;;4992752;28;20206;-63
2021/12/19 02:51:56;;;;;;;3.10;3.00;;;3.50;99.90;;;;;;5040078;28;20671;-62
2021/12/19 02:54:28;;;;;;;2.60;2.50;;;3.40;99.90;;;;;;5038027;28;20226;-64
2021/12/19 02:56:55;;;;;;;3.10;2.90;;;3.50;99.90;;;;;;5038809;28;20247;-63
2021/12/19 02:59:23;;;;;;;2.63;2.53;;;3.50;99.90;;;;;;5038162;28;20227;-62
2021/12/19 03:01:51;;;;;;;2.60;2.50;;;3.50;99.90;;;;;;5038830;28;20200;-63
2021/12/19 03:04:17;;;;;;;2.53;2.43;;;3.50;99.90;;;;;;5037867;28;20621;-62
2021/12/19 03:06:46;;;;;;;2.70;2.60;;;3.60;99.90;;;;;;5038545;28;20653;-63
2021/12/19 03:09:19;;;;;;;3.20;3.00;;;3.60;99.90;;;;;;5034764;28;20223;-63
2021/12/19 03:12:07;;;;;;;2.70;2.60;;;3.60;99.90;;;;;;5038120;28;20561;-62
2021/12/19 03:20:06;;;;;;;2.90;2.70;;;3.50;99.90;;;;;;5043259;28;20318;-63
2021/12/19 03:22:32;;;;;;;2.30;2.20;;;3.40;99.90;;;;;;5036306;28;20231;-63
2021/12/19 03:24:59;;;;;;;3.00;2.80;;;3.40;99.90;;;;;;5044947;28;20592;-62
2021/12/19 03:27:27;;;;;;;3.03;2.90;;;3.40;99.90;;;;;;5050368;28;20196;-61
2021/12/19 03:29:54;;;;;;;2.97;2.80;;;3.30;99.90;;;;;;5055517;28;20295;-62
2021/12/19 03:32:23;;;;;;;2.93;2.83;;;3.30;99.90;;;;;;5055971;28;20300;-63
2021/12/19 03:34:50;;;;;;;2.60;2.50;;;3.30;99.90;;;;;;5055692;28;20215;-62
2021/12/19 03:37:17;;;;;;;3.30;3.10;;;3.30;99.90;;;;;;5055382;28;20219;-62
2021/12/19 03:39:56;;;;;;;2.70;2.60;;;3.30;99.90;;;;;;5055407;28;20863;-61
2021/12/19 03:42:24;;;;;;;2.80;2.70;;;3.30;99.90;;;;;;5055401;28;20200;-63
2021/12/19 03:44:53;;;;;;;2.70;2.60;;;3.30;99.90;;;;;;5055434;28;20208;-62
2021/12/19 03:47:20;;;;;;;3.00;2.80;;;3.30;99.90;;;;;;5055530;28;20204;-63
2021/12/19 03:49:47;;;;;;;3.50;3.30;;;3.40;99.90;;;;;;5055137;28;20230;-62
2021/12/19 03:52:14;;;;;;;2.87;2.77;;;3.50;99.90;;;;;;5055253;28;20250;-63
2021/12/19 03:54:41;;;;;;;3.30;3.10;;;3.40;99.90;;;;;;5054657;28;20688;-62
2021/12/19 03:57:08;;;;;;;2.70;2.60;;;3.40;99.90;;;;;;5055127;28;20318;-62
2021/12/19 03:59:35;;;;;;;2.90;2.80;;;3.40;99.90;;;;;;5055671;28;20292;-61
2021/12/19 04:02:04;;;;;;;2.67;2.50;;;3.40;99.90;;;;;;5053961;28;20232;-62
2021/12/19 04:04:35;;;;;;;2.67;2.57;;;3.40;99.90;;;;;;5055391;28;20286;-62
2021/12/19 04:07:02;;;;;;;2.67;2.57;;;3.40;99.90;;;;;;5054963;28;20231;-63
2021/12/19 04:09:29;;;;;;;2.83;2.67;;;3.40;99.90;;;;;;5054938;28;20554;-61
2021/12/19 04:11:56;;;;;;;2.80;2.60;;;3.40;99.90;;;;;;5054720;28;20678;-64
2021/12/19 04:14:23;;;;;;;2.63;2.53;;;3.40;99.90;;;;;;5055006;28;20211;-62
2021/12/19 04:16:50;;;;;;;2.50;2.37;;;3.40;99.90;;;;;;5054368;28;20230;-62
2021/12/19 04:19:20;;;;;;;2.53;2.43;;;3.40;99.90;;;;;;5054934;28;20319;-62
2021/12/19 04:21:47;;;;;;;2.23;2.13;;;3.40;99.90;;;;;;5054760;28;20666;-62
2021/12/19 04:24:14;;;;;;;2.40;2.30;;;3.40;99.90;;;;;;5055120;28;20192;-62
2021/12/19 04:26:41;;;;;;;2.50;2.40;;;3.40;99.90;;;;;;5054227;28;20593;-61
2021/12/19 04:29:08;;;;;;;2.27;2.17;;;3.40;99.90;;;;;;5054064;28;20647;-61
2021/12/19 04:31:35;;;;;;;2.30;2.20;;;3.40;99.90;;;;;;5054110;28;20648;-62
2021/12/19 04:34:02;;;;;;;2.17;2.07;;;3.40;99.90;;;;;;5054391;28;20208;-61
2021/12/19 04:36:34;;;;;;;2.13;2.03;;;3.40;99.90;;;;;;5053774;28;20711;-62
2021/12/19 04:53:10;;;;;;;2.37;2.27;;;3.40;99.90;;;;;;4973140;28;20594;-62
2021/12/19 04:55:48;;;;;;;2.20;2.10;;;3.30;99.90;;;;;;5030601;28;20354;-61
2021/12/19 04:58:33;;;;;;;2.03;1.93;;;3.20;99.90;;;;;;5033119;28;20212;-62
2021/12/19 05:01:11;;;;;;;2.27;2.17;;;3.20;99.90;;;;;;5034206;28;20288;-63
2021/12/19 05:03:46;;;;;;;2.00;1.90;;;3.20;99.90;;;;;;5034166;28;20211;-62
2021/12/19 05:06:19;;;;;;;2.10;2.00;;;3.20;99.90;;;;;;5034589;28;20282;-61
2021/12/19 05:14:19;;;;;;;2.13;2.03;;;3.20;99.90;;;;;;5002732;28;20691;-61
2021/12/19 05:16:47;;;;;;;2.20;2.10;;;3.20;99.90;;;;;;5033052;28;20239;-62
2021/12/19 05:19:27;;;;;;;2.33;2.23;;;3.20;99.90;;;;;;5033244;28;20713;-63
2021/12/19 05:21:58;;;;;;;1.90;1.80;;;3.20;99.90;;;;;;5033277;28;20238;-62
2021/12/19 05:24:49;;;;;;;2.00;1.90;;;3.20;99.90;;;;;;5033719;28;20204;-61
2021/12/19 05:27:16;;;;;;;2.30;2.20;;;3.20;99.90;;;;;;5032889;28;20323;-63
2021/12/19 05:29:43;;;;;;;2.00;1.90;;;3.20;99.90;;;;;;5032913;28;20291;-63
2021/12/19 05:32:10;;;;;;;2.07;1.97;;;3.20;99.90;;;;;;5032758;28;20299;-62
2021/12/19 05:34:37;;;;;;;2.00;1.90;;;3.30;99.90;;;;;;5033169;28;20291;-62
2021/12/19 05:45:20;;;;;;;1.90;1.80;;;3.30;99.90;;;;;;5033007;28;20223;-64
2021/12/19 05:47:49;;;;;;;2.07;1.97;;;3.30;99.90;;;;;;5033073;28;20205;-64
2021/12/19 05:50:18;;;;;;;1.90;1.80;;;3.40;99.90;;;;;;5033109;28;20204;-64
2021/12/19 05:52:45;;;;;;;2.00;1.90;;;3.40;99.90;;;;;;5032898;28;20303;-63
2021/12/19 05:55:14;;;;;;;1.87;1.77;;;3.50;99.90;;;;;;5033422;28;20322;-63
2021/12/19 05:57:41;;;;;;;1.90;1.80;;;3.60;99.90;;;;;;5032582;28;20211;-63
2021/12/19 06:00:12;;;;;;;1.80;1.70;;;3.60;99.90;;;;;;5033615;28;20201;-63
2021/12/19 06:02:39;;;;;;;1.80;1.70;;;3.60;99.90;;;;;;5032090;28;20223;-62
2021/12/19 06:05:07;;;;;;;1.53;1.53;;;3.60;99.90;;;;;;5032365;28;20205;-63
2021/12/19 06:07:34;;;;;;;1.70;1.70;;;3.60;99.90;;;;;;5033873;28;20272;-64
2021/12/19 06:10:01;;;;;;;1.87;1.77;;;3.50;99.90;;;;;;5032489;28;20586;-63
2021/12/19 06:12:29;;;;;;;1.60;1.50;;;3.50;99.90;;;;;;5029607;28;20243;-62
2021/12/19 06:14:56;;;;;;;1.67;1.60;;;3.50;99.90;;;;;;5035602;28;20297;-62
2021/12/19 06:17:23;;;;;;;1.70;1.60;;;3.40;99.90;;;;;;5028445;28;20261;-61
2021/12/19 06:19:50;;;;;;;1.40;1.40;;;3.40;99.90;;;;;;5030906;28;20624;-63
2021/12/19 06:22:17;;;;;;;1.50;1.50;;;3.30;99.90;;;;;;5034229;28;20268;-62
2021/12/19 06:24:44;;;;;;;1.60;1.60;;;3.30;99.90;;;;;;5031388;28;20296;-61
2021/12/19 06:27:11;;;;;;;1.90;1.80;;;3.20;99.90;;;;;;5033715;28;20220;-62
2021/12/19 06:29:39;;;;;;;1.70;1.60;;;3.20;99.90;;;;;;5031328;28;20645;-63
2021/12/19 06:32:06;;;;;;;1.80;1.70;;;3.20;99.90;;;;;;5031688;28;20244;-63
2021/12/19 06:34:33;;;;;;;1.53;1.53;;;3.20;99.90;;;;;;5031119;28;20211;-62
2021/12/19 06:37:00;;;;;;;1.60;1.60;;;3.20;99.90;;;;;;5032822;28;20223;-63
2021/12/19 06:39:27;;;;;;;1.80;1.70;;;3.20;99.90;;;;;;5031957;28;20252;-62
2021/12/19 06:41:54;;;;;;;1.80;1.70;;;3.20;99.90;;;;;;5036234;28;20204;-61
2021/12/19 06:44:22;;;;;;;1.90;1.80;;;3.20;99.90;;;;;;5029531;28;20296;-62
2021/12/19 06:46:50;;;;;;;1.83;1.73;;;3.20;99.90;;;;;;5030474;28;20716;-63
2021/12/19 06:49:17;;;;;;;1.80;1.70;;;3.20;99.90;;;;;;5030077;28;20655;-62
2021/12/19 06:51:44;;;;;;;1.73;1.63;;;3.10;99.90;;;;;;5032534;28;20358;-63
2021/12/19 06:54:11;;;;;;;1.70;1.60;;;3.10;99.90;;;;;;5044404;28;20283;-62
2021/12/19 06:56:38;;;;;;;1.50;1.50;;;3.10;99.90;;;;;;5052050;28;20220;-61
2021/12/19 06:59:05;;;;;;;1.67;1.57;;;3.20;99.90;;;;;;5051904;28;20222;-62
2021/12/19 07:01:32;;;;;;;1.60;1.50;;;3.20;99.90;;;;;;5052305;28;20206;-63
2021/12/19 07:04:01;;;;;;;1.70;1.60;;;3.10;99.90;;;;;;5052135;28;20203;-63
2021/12/19 07:06:28;;;;;;;1.80;1.70;;;3.10;99.90;;;;;;5051789;28;20303;-63
2021/12/19 07:08:54;;;;;;;1.60;1.50;;;3.10;99.90;;;;;;5052090;28;20645;-62
2021/12/19 07:11:22;;;;;;;1.90;1.80;;;3.00;99.90;;;;;;5051756;28;20210;-62
2021/12/19 07:13:49;;;;;;;1.50;1.50;;;3.00;99.90;;;;;;5052368;28;20204;-61
2021/12/19 07:16:16;;;;;;;1.80;1.70;;;3.00;99.90;;;;;;5051685;28;20224;-63
2021/12/19 07:18:44;;;;;;;1.70;1.60;;;3.10;99.90;;;;;;5053483;28;20319;-62
2021/12/19 07:21:12;;;;;;;1.40;1.40;;;3.00;99.90;;;;;;5055495;28;20204;-61
2021/12/19 07:23:39;;;;;;;1.60;1.50;;;3.00;99.90;;;;;;5052369;28;20674;-61
2021/12/19 07:26:06;;;;;;;1.53;1.50;;;3.10;99.90;;;;;;5053503;28;20251;-63
2021/12/19 07:28:33;;;;;;;1.30;1.30;;;3.10;99.90;;;;;;5052366;28;20200;-61
2021/12/19 07:31:00;;;;;;;1.50;1.50;;;3.20;99.90;;;;;;5042492;28;20269;-62
2021/12/19 07:33:27;;;;;;;2.03;1.60;;;3.10;99.90;;;;;;5030915;28;20208;-62
2021/12/19 07:35:55;;;;;;;1.80;1.70;;;3.20;99.90;;;;;;5034111;28;20252;-63
2021/12/19 07:38:29;;;;;;;1.37;1.37;;;3.10;99.90;;;;;;5039711;28;20278;-63
2021/12/19 07:40:58;;;;;;;1.37;1.37;;;3.10;99.90;;;;;;5037740;28;20239;-63
2021/12/19 07:43:25;;;;;;;1.50;1.50;;;3.10;99.90;;;;;;5047248;28;20200;-63
2021/12/19 07:45:52;;;;;;;1.70;1.60;;;3.10;99.90;;;;;;5048319;28;20220;-63
2021/12/19 07:48:19;;;;;;;1.40;1.40;;;3.10;99.90;;;;;;5043577;28;20670;-62
2021/12/19 07:50:45;;;;;;;1.40;1.40;;;3.10;99.90;;;;;;5042823;28;20515;-62
2021/12/19 07:53:12;;;;;;;1.40;1.40;;;3.10;99.90;;;;;;5029288;28;20204;-60
2021/12/19 07:55:40;;;;;;;1.40;1.40;;;3.10;99.90;;;;;;5042175;28;20229;-62
2021/12/19 07:58:07;;;;;;;1.53;1.47;;;3.10;99.90;;;;;;5047060;28;20542;-62
2021/12/19 08:00:34;;;;;;;1.50;1.50;;;3.10;99.90;;;;;;5036687;28;20220;-61
2021/12/19 08:03:01;;;;;;;1.67;1.60;;;3.10;99.90;;;;;;5036241;28;20571;-62
2021/12/19 08:05:28;;;;;;;1.30;1.30;;;3.10;99.90;;;;;;5044946;28;20315;-62
2021/12/19 08:08:00;;;;;;;1.50;1.50;;;3.10;99.90;;;;;;5054211;28;20200;-60
2021/12/19 08:13:14;;;;;;;1.40;1.40;;;3.30;99.90;;;;;;5055820;28;20645;-59
2021/12/19 08:15:41;;;;;;;1.50;1.50;;;3.30;99.90;;;;;;5055624;28;20657;-63
2021/12/19 08:18:08;;;;;;;1.20;1.20;;;3.30;99.90;;;;;;5055497;28;20579;-63
2021/12/19 08:20:35;;;;;;;1.40;1.40;;;3.20;99.90;;;;;;5034190;28;20652;-62
2021/12/19 08:23:02;;;;;;;1.30;1.30;;;3.20;99.90;;;;;;5029964;28;20196;-64
2021/12/19 08:25:29;;;;;;;1.63;1.60;;;3.20;99.90;;;;;;5033004;28;20259;-63
2021/12/19 08:27:57;;;;;;;1.60;1.50;;;3.30;99.90;;;;;;5037862;28;20192;-64
2021/12/19 08:30:27;;;;;;;1.20;1.20;;;3.30;99.90;;;;;;5032255;28;20203;-63
2021/12/19 08:32:56;;;;;;;1.40;1.40;;;3.20;99.90;;;;;;5034714;28;20204;-64
2021/12/19 08:35:23;;;;;;;1.40;1.40;;;3.20;99.90;;;;;;5041474;28;20656;-62
2021/12/19 08:37:50;;;;;;;1.40;1.40;;;3.20;99.90;;;;;;5060252;22;20904;-65
2021/12/19 08:40:17;;;;;;;1.50;1.50;;;3.20;99.90;;;;;;5053975;28;20310;-65
2021/12/19 08:42:45;;;;;;;1.40;1.40;;;3.20;99.90;;;;;;5054261;28;20619;-64
2021/12/19 08:45:12;;;;;;;1.30;1.30;;;3.20;99.90;;;;;;5053815;28;20200;-65
2021/12/19 08:47:41;;;;;;;1.30;1.30;;;3.30;99.90;;;;;;5054581;28;20230;-65
2021/12/19 08:50:10;;;;;;;1.30;1.30;;;3.30;99.90;;;;;;5055915;28;20287;-64
2021/12/19 08:52:37;;;;;;;1.30;1.30;;;3.40;99.90;;;;;;5054128;28;20254;-65
2021/12/19 08:55:05;;;;;;;1.40;1.40;;;3.30;99.90;;;;;;5053582;28;20248;-64
2021/12/19 08:57:33;;;;;;;1.20;1.20;;;3.40;99.90;;;;;;5053431;28;20230;-64
2021/12/19 09:00:00;;;;;;;1.23;1.23;;;3.40;99.90;;;;;;5055738;28;20253;-63
2021/12/19 09:02:27;;;;;;;1.20;1.20;;;3.40;99.90;;;;;;5053760;28;20292;-65
2021/12/19 09:04:55;;;;;;;1.30;1.30;;;3.50;99.90;;;;;;5054148;28;20235;-64
2021/12/19 09:07:22;;;;;;;1.20;1.20;;;3.50;99.90;;;;;;5053739;28;20255;-64
2021/12/19 09:09:49;;;;;;;1.20;1.20;;;3.50;99.90;;;;;;5048173;28;20278;-65
2021/12/19 09:12:17;;;;;;;1.20;1.20;;;3.50;99.90;;;;;;5048817;28;20246;-65
2021/12/19 09:14:44;;;;;;;1.53;1.50;;;3.50;99.90;;;;;;5048059;28;20287;-64
2021/12/19 09:17:11;;;;;;;1.30;1.30;;;3.60;99.90;;;;;;5052401;28;20274;-65
2021/12/19 09:19:38;;;;;;;1.20;1.20;;;3.60;99.90;;;;;;5052770;28;20586;-64
2021/12/19 09:22:07;;;;;;;1.20;1.20;;;3.70;99.90;;;;;;5052896;28;20207;-65
2021/12/19 09:24:34;;;;;;;1.37;1.37;;;3.70;99.90;;;;;;5053099;28;20212;-64
2021/12/19 09:27:03;;;;;;;1.40;1.40;;;3.80;99.90;;;;;;5052118;28;20246;-65
2021/12/19 09:29:30;;;;;;;1.30;1.30;;;3.70;99.90;;;;;;5062702;28;20207;-65
2021/12/19 09:31:59;;;;;;;1.03;1.03;;;3.70;99.90;;;;;;5057767;28;20239;-66
2021/12/19 09:34:27;;;;;;;1.40;1.40;;;3.80;99.90;;;;;;5063992;28;20184;-65
2021/12/19 09:36:55;;;;;;;1.40;1.40;;;3.80;99.90;;;;;;5073496;28;20299;-66
2021/12/19 09:39:24;;;;;;;1.67;1.63;;;3.80;99.90;;;;;;5057148;28;20311;-65
2021/12/19 09:41:55;;;;;;;1.87;1.77;;;3.80;99.90;;;;;;5053681;28;20200;-66
2021/12/19 09:44:23;;;;;;;1.90;1.80;;;3.80;99.90;;;;;;5052147;28;20235;-66
2021/12/19 09:46:51;;;;;;;1.70;1.60;;;3.90;99.90;;;;;;5056395;28;20262;-64
2021/12/19 09:49:19;;;;;;;1.57;1.57;;;3.80;99.90;;;;;;5057533;28;20264;-65
2021/12/19 09:51:48;;;;;;;1.90;1.80;;;3.90;99.90;;;;;;5057647;28;20204;-65
2021/12/19 09:54:16;;;;;;;1.43;1.43;;;3.90;99.90;;;;;;5054602;28;20210;-64
2021/12/19 09:56:44;;;;;;;1.80;1.70;;;4.00;99.90;;;;;;5054253;28;20214;-63
2021/12/19 09:59:13;;;;;;;1.40;1.40;;;4.00;99.90;;;;;;5054307;28;20208;-63
2021/12/19 10:01:41;;;;;;;1.57;1.50;;;4.00;99.90;;;;;;5045490;28;20290;-65
2021/12/19 10:04:33;;;;;;;1.53;1.43;;;4.00;99.90;;;;;;5054862;28;20626;-66
2021/12/19 10:07:09;;;;;;;1.60;1.50;;;4.00;99.90;;;;;;5055922;28;20261;-65
2021/12/19 10:09:38;;;;;;;1.50;1.50;;;4.00;99.90;;;;;;5056195;28;20257;-65
2021/12/19 10:15:08;;;;;;;1.40;1.40;;;4.10;99.90;;;;;;5044535;28;20207;-66
2021/12/19 10:17:35;;;;;;;1.50;1.50;;;4.00;99.90;;;;;;5053184;28;20274;-64
2021/12/19 10:20:05;;;;;;;1.97;1.87;;;4.10;99.90;;;;;;5048218;28;20259;-65
2021/12/19 10:22:33;;;;;;;1.90;1.80;;;4.00;99.90;;;;;;5052967;28;20739;-64
2021/12/19 10:25:18;;;;;;;2.00;1.90;;;3.80;99.90;;;;;;5053365;28;20227;-64
2021/12/19 10:27:48;;;;;;;2.10;2.00;;;3.80;99.90;;;;;;5052153;28;20227;-64
2021/12/19 10:30:24;;;;;;;2.07;1.97;;;3.70;99.90;;;;;;5052660;28;20231;-64
2021/12/19 10:32:55;;;;;;;1.90;1.80;;;3.70;99.90;;;;;;5051647;28;20261;-64
2021/12/19 10:35:24;;;;;;;1.57;1.57;;;3.90;99.90;;;;;;5052284;28;20232;-64
2021/12/19 10:37:51;;;;;;;1.60;1.57;;;3.90;99.90;;;;;;5056045;28;20231;-65
2021/12/19 10:40:19;;;;;;;1.20;1.20;;;3.90;99.90;;;;;;5063656;28;20287;-64
2021/12/19 10:42:52;;;;;;;1.40;1.40;;;4.00;99.90;;;;;;5067823;28;20203;-65
2021/12/19 10:45:33;;;;;;;1.47;1.47;;;4.00;99.90;;;;;;5065059;28;20200;-63
2021/12/19 10:48:26;;;;;;;1.43;1.43;;;4.00;99.90;;;;;;5065398;28;20709;-66
2021/12/19 10:50:59;;;;;;;1.90;1.80;;;4.00;99.90;;;;;;5055726;28;20641;-66
2021/12/19 10:53:30;;;;;;;1.87;1.77;;;4.00;99.90;;;;;;5052398;28;20758;-64
2021/12/19 10:55:58;;;;;;;1.80;1.70;;;4.10;99.90;;;;;;5053342;28;20287;-64
2021/12/19 10:58:33;;;;;;;1.80;1.70;;;4.00;99.90;;;;;;5053858;28;20322;-63
2021/12/19 11:01:18;;;;;;;1.77;1.67;;;3.90;99.90;;;;;;5050906;28;20295;-63
2021/12/19 11:03:59;;;;;;;1.50;1.50;;;3.90;99.90;;;;;;5066259;28;20202;-65
2021/12/19 11:06:31;;;;;;;1.80;1.70;;;4.00;99.90;;;;;;5071712;28;20208;-65
2021/12/19 11:09:00;;;;;;;1.90;1.80;;;4.10;99.90;;;;;;5066895;28;20574;-66
2021/12/19 11:11:43;;;;;;;1.87;1.77;;;4.10;99.90;;;;;;5052226;28;20263;-65
2021/12/19 11:14:15;;;;;;;1.90;1.80;;;4.10;99.90;;;;;;5049239;28;20198;-65
2021/12/19 11:16:42;;;;;;;1.43;1.43;;;4.20;99.90;;;;;;5054044;28;20263;-65
2021/12/19 11:19:10;;;;;;;1.87;1.77;;;4.30;99.90;;;;;;5055944;28;20232;-67
2021/12/19 11:21:37;;;;;;;1.83;1.73;;;4.20;99.90;;;;;;5059213;28;20291;-65
2021/12/19 11:24:07;;;;;;;1.97;1.87;;;4.20;99.90;;;;;;5053928;28;20203;-64
2021/12/19 11:26:37;;;;;;;2.10;2.00;;;4.20;99.90;;;;;;5059747;28;20242;-65
2021/12/19 11:29:05;;;;;;;2.30;2.20;;;4.30;99.90;;;;;;5051396;28;20231;-66
2021/12/19 11:31:34;;;;;;;1.80;1.70;;;4.40;99.90;;;;;;5055677;28;20294;-65
2021/12/19 11:34:22;;;;;;;2.20;2.10;;;4.40;99.90;;;;;;5056654;28;20226;-66
2021/12/19 11:36:56;;;;;;;2.10;2.00;;;4.40;99.90;;;;;;5054508;28;20303;-66
2021/12/19 11:39:30;;;;;;;2.20;2.10;;;4.40;99.90;;;;;;5055161;28;20211;-65
2021/12/19 11:42:07;;;;;;;2.30;2.20;;;4.40;99.90;;;;;;5057744;28;20272;-66
2021/12/19 11:44:37;;;;;;;2.43;2.33;;;4.30;99.90;;;;;;5057605;28;20216;-66
2021/12/19 11:47:11;;;;;;;2.57;2.47;;;4.30;99.90;;;;;;5056310;28;20303;-66
2021/12/19 11:49:38;;;;;;;2.50;2.40;;;4.30;99.90;;;;;;5055186;28;20674;-65
2021/12/19 11:52:27;;;;;;;2.53;2.43;;;4.30;99.90;;;;;;5057241;28;20674;-66
2021/12/19 11:55:24;;;;;;;2.83;2.73;;;4.30;99.90;;;;;;5054319;28;20235;-64
2021/12/19 11:58:24;;;;;;;3.20;3.00;;;4.30;99.90;;;;;;5052010;28;20226;-65
2021/12/19 12:00:56;;;;;;;3.60;3.40;;;4.30;99.90;;;;;;5055820;28;20292;-67
2021/12/19 12:03:31;;;;;;;3.80;3.60;;;4.30;99.90;;;;;;5053740;28;20282;-65
2021/12/19 12:06:38;;;;;;;3.77;3.57;;;4.40;99.90;;;;;;5055317;28;20207;-66
2021/12/19 12:09:39;;;;;;;3.90;3.70;;;4.30;99.90;;;;;;5035433;28;20304;-63
2021/12/19 12:12:19;;;;;;;3.60;3.40;;;4.20;99.90;;;;;;5036531;28;20266;-66
2021/12/19 12:14:59;;;;;;;3.60;3.40;;;4.20;99.90;;;;;;5035399;28;20239;-65
2021/12/19 12:17:33;;;;;;;3.63;3.43;;;4.10;99.90;;;;;;5036184;28;20224;-67
2021/12/19 12:20:16;;;;;;;3.27;3.07;;;4.10;99.90;;;;;;5035617;28;20232;-65
2021/12/19 12:22:53;;;;;;;3.30;3.10;;;4.10;99.90;;;;;;5036003;28;20200;-66
2021/12/19 12:25:30;;;;;;;3.17;3.00;;;4.20;99.90;;;;;;5034762;28;20227;-66
2021/12/19 12:28:03;;;;;;;2.70;2.60;;;4.20;99.90;;;;;;5034609;28;20224;-66
2021/12/19 12:30:33;;;;;;;2.80;2.70;;;4.30;99.90;;;;;;5034359;28;20185;-64
2021/12/19 12:33:02;;;;;;;3.27;3.07;;;4.30;99.90;;;;;;5035007;28;20203;-66
2021/12/19 12:35:31;;;;;;;3.20;3.00;;;4.30;99.90;;;;;;5034774;28;20287;-65
2021/12/19 12:37:59;;;;;;;3.37;3.17;;;4.40;99.90;;;;;;5033928;28;20240;-64
2021/12/19 12:40:30;;;;;;;3.80;3.60;;;4.30;99.90;;;;;;5034964;28;20268;-65
2021/12/19 12:43:05;;;;;;;4.03;3.83;;;4.30;99.90;;;;;;5034713;28;20284;-65
2021/12/19 12:45:52;;;;;;;3.67;3.47;;;4.20;99.90;;;;;;5034461;28;20204;-66
2021/12/19 12:48:41;;;;;;;3.43;3.23;;;4.00;99.90;;;;;;5033791;28;20224;-65
2021/12/19 12:51:11;;;;;;;3.87;3.67;;;3.90;99.90;;;;;;5033964;28;20276;-65
2021/12/19 12:53:41;;;;;;;3.30;3.10;;;4.10;99.90;;;;;;5035201;28;20284;-66
2021/12/19 12:56:14;;;;;;;4.00;3.80;;;4.20;99.90;;;;;;5033656;28;20199;-65
2021/12/19 12:58:45;;;;;;;3.67;3.47;;;4.10;99.90;;;;;;5033646;28;20224;-67
2021/12/19 13:01:14;;;;;;;3.70;3.50;;;3.80;99.90;;;;;;5033945;28;20309;-66
2021/12/19 13:03:54;;;;;;;3.10;2.90;;;3.80;99.90;;;;;;5034312;28;20205;-65
2021/12/19 13:06:46;;;;;;;3.10;2.90;;;3.70;99.90;;;;;;5033881;28;20284;-66
2021/12/19 13:09:16;;;;;;;2.97;2.87;;;3.80;99.90;;;;;;5034258;28;20193;-66
2021/12/19 13:11:43;;;;;;;3.30;3.10;;;3.90;99.90;;;;;;5035314;28;20291;-65
2021/12/19 13:14:17;;;;;;;2.73;2.63;;;3.50;99.90;;;;;;5038567;28;20205;-64
2021/12/19 13:16:46;;;;;;;2.30;2.20;;;3.60;99.90;;;;;;5042216;28;20651;-65
2021/12/19 13:19:33;;;;;;;2.30;2.20;;;3.60;99.90;;;;;;5038780;28;20292;-65
2021/12/19 13:22:02;;;;;;;2.10;2.00;;;3.60;99.90;;;;;;5040569;28;20205;-65
2021/12/19 13:24:31;;;;;;;2.10;2.00;;;3.60;99.90;;;;;;5039803;28;20300;-66
2021/12/19 13:27:06;;;;;;;2.37;2.27;;;3.70;99.90;;;;;;5033562;28;20598;-65
2021/12/19 13:29:33;;;;;;;2.30;2.20;;;3.90;99.90;;;;;;5033607;28;20216;-64
2021/12/19 13:32:20;;;;;;;2.03;1.93;;;3.70;99.90;;;;;;5033678;28;20291;-67
2021/12/19 13:34:48;;;;;;;2.20;2.10;;;3.70;99.90;;;;;;5033177;28;20313;-65
2021/12/19 13:37:17;;;;;;;2.50;2.40;;;3.70;99.90;;;;;;5033158;28;20319;-64
2021/12/19 13:39:48;;;;;;;2.60;2.50;;;3.70;99.90;;;;;;5033230;28;20205;-66
2021/12/19 13:42:16;;;;;;;2.50;2.40;;;3.70;99.90;;;;;;5035509;28;20635;-66
2021/12/19 13:44:46;;;;;;;2.20;2.10;;;3.80;99.90;;;;;;5035614;28;20278;-64
2021/12/19 13:47:22;;;;;;;2.20;2.10;;;3.90;99.90;;;;;;5034005;28;20279;-65
2021/12/19 13:49:49;;;;;;;2.10;2.00;;;4.00;99.90;;;;;;5033483;28;20199;-65
2021/12/19 13:52:19;;;;;;;2.30;2.20;;;4.00;99.90;;;;;;5033838;28;20207;-64
2021/12/19 13:54:48;;;;;;;2.10;2.00;;;3.90;99.90;;;;;;5038015;28;20295;-66
2021/12/19 13:57:19;;;;;;;2.10;2.00;;;3.80;99.90;;;;;;5038141;28;20275;-66
2021/12/19 13:59:46;;;;;;;2.23;2.13;;;3.70;99.90;;;;;;5033922;28;20251;-65
2021/12/19 14:02:14;;;;;;;2.37;2.27;;;3.70;99.90;;;;;;5041696;28;20306;-65
2021/12/19 14:04:42;;;;;;;2.30;2.20;;;3.80;99.90;;;;;;5051443;28;20292;-65
2021/12/19 14:07:15;;;;;;;2.57;2.47;;;3.90;99.90;;;;;;5051103;28;20223;-65
2021/12/19 14:09:45;;;;;;;2.40;2.30;;;3.90;99.90;;;;;;5051679;28;20246;-65